Time;durP1;ratioP1;P1;durP2;ratioP2;P2;SDS_P1;SDS_P2;PMS_P1;PMS_P2;Temp;Humidity;BMP_temperature;BMP_pressure;BME280_temperature;BME280_humidity;BME280_pressure;Samples;Min_cycle;Max_cycle;Signal;HPM_P1;HPM_P2
2021/03/02 00:00:50;;;;;;;15.27;7.57;;;3.40;83.20;;;;;;4999244;28;20111;-64
2021/03/02 00:03:17;;;;;;;30.00;6.90;;;3.40;83.20;;;;;;4998242;28;20034;-65
2021/03/02 00:05:46;;;;;;;10.45;6.35;;;3.40;83.20;;;;;;4999027;28;20044;-64
2021/03/02 00:08:13;;;;;;;57.35;8.13;;;3.40;83.60;;;;;;4998837;28;20041;-65
2021/03/02 00:10:42;;;;;;;10.52;5.75;;;3.40;83.50;;;;;;4980821;28;20026;-62
2021/03/02 00:13:10;;;;;;;12.93;6.03;;;3.30;83.80;;;;;;4981197;28;20509;-62
2021/03/02 00:15:35;;;;;;;14.40;6.43;;;3.30;83.60;;;;;;4996409;28;20103;-62
2021/03/02 00:18:02;;;;;;;10.02;6.72;;;3.30;83.70;;;;;;4998022;28;20038;-65
2021/03/02 00:20:31;;;;;;;11.35;5.88;;;3.30;83.60;;;;;;4998852;28;20133;-65
2021/03/02 00:23:27;;;;;;;47.42;7.63;;;3.30;83.60;;;;;;4963403;28;20041;-62
2021/03/02 00:25:56;;;;;;;10.10;5.63;;;3.30;83.20;;;;;;4997531;28;20049;-63
2021/03/02 00:28:25;;;;;;;25.77;7.00;;;3.20;82.80;;;;;;4998395;28;20052;-63
2021/03/02 00:30:52;;;;;;;11.43;5.75;;;3.10;83.30;;;;;;4998293;28;20045;-63
2021/03/02 00:33:20;;;;;;;8.65;5.63;;;2.90;81.90;;;;;;4998080;28;20033;-63
2021/03/02 00:35:46;;;;;;;8.65;5.28;;;2.80;82.50;;;;;;4998782;28;20152;-63
2021/03/02 00:38:11;;;;;;;8.23;4.60;;;2.80;82.90;;;;;;4999665;28;20038;-63
2021/03/02 00:40:37;;;;;;;8.55;5.35;;;2.70;83.20;;;;;;5014498;28;20041;-63
2021/03/02 00:43:03;;;;;;;16.90;6.10;;;2.70;83.70;;;;;;5000469;28;20041;-63
2021/03/02 00:45:29;;;;;;;10.35;5.68;;;2.60;83.60;;;;;;5000169;28;20109;-63
2021/03/02 00:47:55;;;;;;;13.93;5.55;;;2.60;84.00;;;;;;4999565;28;20120;-64
2021/03/02 00:50:25;;;;;;;11.35;4.53;;;2.60;84.40;;;;;;4999881;28;20470;-62
2021/03/02 00:52:52;;;;;;;13.20;6.38;;;2.60;84.40;;;;;;5000617;28;20034;-63
2021/03/02 00:55:21;;;;;;;9.20;5.47;;;2.60;84.70;;;;;;4982738;28;20033;-68
2021/03/02 00:57:47;;;;;;;9.38;5.63;;;2.60;83.50;;;;;;4998361;28;20720;-63
2021/03/02 01:00:17;;;;;;;5.68;3.88;;;2.60;83.40;;;;;;4980598;28;20125;-63
2021/03/02 01:02:43;;;;;;;7.38;4.72;;;2.50;83.90;;;;;;4980047;28;20124;-64
2021/03/02 01:05:10;;;;;;;6.40;4.43;;;2.50;84.10;;;;;;4980072;28;20441;-63
2021/03/02 01:07:38;;;;;;;29.15;6.00;;;2.50;83.40;;;;;;4980434;28;20041;-64
2021/03/02 01:10:07;;;;;;;6.72;4.00;;;2.50;83.70;;;;;;4979302;28;20538;-64
2021/03/02 01:12:33;;;;;;;6.93;4.20;;;2.40;83.40;;;;;;4980515;28;20144;-63
2021/03/02 01:15:02;;;;;;;7.32;4.95;;;2.40;83.90;;;;;;4996962;28;20029;-63
2021/03/02 01:17:28;;;;;;;6.53;4.32;;;2.40;84.30;;;;;;4997404;28;20088;-64
2021/03/02 01:19:54;;;;;;;24.23;4.97;;;2.40;84.00;;;;;;4997671;28;20211;-63
2021/03/02 01:22:20;;;;;;;7.78;5.32;;;2.40;83.90;;;;;;4998030;28;20037;-64
2021/03/02 01:24:45;;;;;;;6.47;4.55;;;2.40;82.40;;;;;;4998335;28;20628;-63
2021/03/02 01:27:12;;;;;;;9.07;4.65;;;2.40;82.40;;;;;;4998086;28;20120;-63
2021/03/02 01:29:37;;;;;;;48.22;5.72;;;2.30;83.10;;;;;;4998659;28;20662;-63
2021/03/02 01:32:03;;;;;;;16.33;4.95;;;2.30;83.00;;;;;;4998578;28;20022;-65
2021/03/02 01:34:29;;;;;;;57.38;5.65;;;2.20;82.80;;;;;;4999087;28;20802;-65
2021/03/02 01:36:55;;;;;;;4.72;3.80;;;2.20;83.20;;;;;;4997959;28;20037;-65
2021/03/02 01:39:20;;;;;;;11.30;3.85;;;2.20;83.00;;;;;;4997644;28;20956;-65
2021/03/02 01:41:53;;;;;;;6.00;3.75;;;2.10;83.30;;;;;;4997502;28;20034;-65
2021/03/02 01:44:19;;;;;;;5.70;3.58;;;2.10;83.70;;;;;;4997930;28;20038;-64
2021/03/02 01:46:46;;;;;;;16.13;4.35;;;2.10;83.80;;;;;;4979526;28;20808;-65
2021/03/02 01:49:12;;;;;;;6.07;3.65;;;2.10;83.30;;;;;;4997841;28;20038;-65
2021/03/02 01:51:38;;;;;;;5.47;4.10;;;2.10;83.00;;;;;;4980135;28;20065;-64
2021/03/02 01:54:04;;;;;;;4.97;3.40;;;2.00;83.30;;;;;;4997328;28;20038;-65
2021/03/02 01:56:30;;;;;;;7.63;4.30;;;2.00;83.20;;;;;;4997412;28;20022;-64
2021/03/02 01:58:55;;;;;;;5.00;3.60;;;2.00;83.00;;;;;;4996950;28;20998;-65
2021/03/02 02:01:21;;;;;;;11.35;3.55;;;2.00;82.60;;;;;;4996202;28;20563;-65
2021/03/02 02:03:54;;;;;;;19.52;4.97;;;1.90;83.00;;;;;;4996879;28;20160;-65
2021/03/02 02:06:45;;;;;;;5.65;3.65;;;1.90;82.90;;;;;;4997100;28;20469;-64
2021/03/02 02:09:14;;;;;;;4.95;3.42;;;1.90;83.10;;;;;;4996311;28;20099;-65
2021/03/02 02:12:16;;;;;;;3.40;3.00;;;1.90;82.50;;;;;;4997229;28;20683;-65
2021/03/02 02:14:54;;;;;;;17.98;4.47;;;1.90;83.10;;;;;;4981101;28;20049;-65
2021/03/02 02:17:26;;;;;;;5.38;3.92;;;1.90;83.40;;;;;;4996645;28;20038;-65
2021/03/02 02:19:55;;;;;;;5.55;4.45;;;1.90;83.80;;;;;;4996931;28;20034;-65
2021/03/02 02:22:20;;;;;;;5.90;3.63;;;1.90;84.00;;;;;;4997306;28;20042;-65
2021/03/02 02:25:02;;;;;;;5.35;3.50;;;2.00;84.10;;;;;;4996614;28;20046;-65
2021/03/02 02:27:31;;;;;;;5.20;3.63;;;2.00;84.00;;;;;;4997082;28;20041;-63
2021/03/02 02:29:59;;;;;;;4.43;3.35;;;2.10;83.40;;;;;;4979269;28;20038;-63
2021/03/02 02:32:27;;;;;;;4.82;3.50;;;2.10;83.10;;;;;;4996388;28;20030;-63
2021/03/02 02:34:56;;;;;;;21.20;3.88;;;2.10;83.10;;;;;;4997358;28;21018;-63
2021/03/02 02:37:23;;;;;;;5.10;3.55;;;2.20;81.90;;;;;;4996894;28;20562;-63
2021/03/02 02:39:49;;;;;;;5.40;3.55;;;2.20;82.00;;;;;;4996663;28;20038;-64
2021/03/02 02:42:16;;;;;;;4.53;3.58;;;2.10;82.20;;;;;;4996516;28;20444;-65
2021/03/02 02:44:42;;;;;;;4.15;2.97;;;2.10;82.60;;;;;;4996690;28;20099;-63
2021/03/02 02:47:09;;;;;;;12.93;4.57;;;2.10;82.90;;;;;;4995289;28;20033;-64
2021/03/02 02:49:36;;;;;;;5.18;3.40;;;2.00;83.10;;;;;;4996090;28;20064;-65
2021/03/02 02:52:02;;;;;;;8.63;4.18;;;2.10;83.10;;;;;;4996028;28;20156;-65
2021/03/02 02:54:29;;;;;;;9.50;4.10;;;2.10;83.10;;;;;;4995556;28;20080;-65
2021/03/02 02:56:56;;;;;;;4.47;3.55;;;2.10;82.80;;;;;;4997021;28;20534;-63
2021/03/02 02:59:38;;;;;;;5.47;4.00;;;2.10;83.00;;;;;;4998178;28;20030;-65
2021/03/02 03:02:08;;;;;;;5.82;3.90;;;2.10;83.10;;;;;;4997985;28;20037;-65
2021/03/02 03:04:40;;;;;;;10.07;4.50;;;2.00;83.20;;;;;;4979879;28;20052;-65
2021/03/02 03:07:14;;;;;;;5.60;3.47;;;2.00;83.30;;;;;;4996010;28;20772;-64
2021/03/02 03:09:42;;;;;;;6.95;4.28;;;2.00;83.20;;;;;;4991244;28;20034;-64
2021/03/02 03:12:09;;;;;;;5.82;3.75;;;2.10;83.20;;;;;;4996073;28;20034;-64
2021/03/02 03:14:43;;;;;;;6.50;4.13;;;2.10;83.30;;;;;;4996107;28;20045;-64
2021/03/02 03:17:12;;;;;;;7.13;4.28;;;2.10;83.20;;;;;;4995469;28;20034;-64
2021/03/02 03:19:38;;;;;;;5.38;3.58;;;2.00;83.30;;;;;;4995774;28;20038;-65
2021/03/02 03:22:04;;;;;;;6.28;4.00;;;2.10;83.00;;;;;;4995561;28;20037;-65
2021/03/02 03:24:30;;;;;;;7.88;3.90;;;2.00;83.10;;;;;;4995286;28;20038;-65
2021/03/02 03:26:57;;;;;;;20.15;4.75;;;1.90;82.50;;;;;;4995607;28;20092;-65
2021/03/02 03:29:25;;;;;;;6.00;4.20;;;1.90;83.30;;;;;;4978013;28;20038;-65
2021/03/02 03:31:52;;;;;;;14.50;4.45;;;1.80;83.10;;;;;;4994975;28;20762;-65
2021/03/02 03:34:18;;;;;;;15.63;5.10;;;1.70;83.20;;;;;;4995517;28;20120;-65
2021/03/02 03:36:45;;;;;;;28.42;5.63;;;1.70;84.40;;;;;;4995091;28;20030;-65
2021/03/02 03:39:11;;;;;;;10.00;5.45;;;1.70;84.10;;;;;;4995206;28;20093;-65
2021/03/02 03:41:38;;;;;;;33.28;5.28;;;1.60;85.10;;;;;;4995042;28;20041;-65
2021/03/02 03:44:04;;;;;;;20.30;5.25;;;1.50;84.90;;;;;;4995331;28;20038;-64
2021/03/02 03:46:29;;;;;;;41.08;6.55;;;1.60;84.70;;;;;;4994839;28;20049;-64
2021/03/02 03:48:55;;;;;;;17.73;5.22;;;1.60;84.40;;;;;;4995829;28;20036;-65
2021/03/02 03:51:26;;;;;;;38.03;6.55;;;1.60;84.90;;;;;;4995359;28;20149;-64
2021/03/02 03:53:52;;;;;;;16.80;5.25;;;1.60;85.00;;;;;;4995119;28;20046;-64
2021/03/02 03:56:20;;;;;;;8.00;4.80;;;1.50;85.20;;;;;;4990317;28;20030;-64
2021/03/02 03:58:46;;;;;;;7.55;4.80;;;1.50;85.30;;;;;;4995135;28;20030;-64
2021/03/02 04:01:12;;;;;;;7.93;4.50;;;1.50;85.30;;;;;;4995435;28;20076;-65
2021/03/02 04:03:40;;;;;;;7.70;5.00;;;1.50;85.70;;;;;;4995281;28;20132;-64
2021/03/02 04:06:06;;;;;;;20.02;5.32;;;1.50;85.60;;;;;;4995251;28;20038;-65
2021/03/02 04:08:33;;;;;;;7.55;4.57;;;1.60;85.50;;;;;;4994007;28;20517;-65
2021/03/02 04:11:01;;;;;;;7.85;4.80;;;1.60;84.90;;;;;;4994664;28;20038;-64
2021/03/02 04:13:27;;;;;;;6.78;4.80;;;1.70;85.40;;;;;;4995860;28;20773;-64
2021/03/02 04:15:53;;;;;;;8.88;4.85;;;1.70;85.20;;;;;;4994266;28;20072;-65
2021/03/02 04:18:19;;;;;;;9.23;4.85;;;1.70;85.10;;;;;;4995566;28;20112;-65
2021/03/02 04:20:47;;;;;;;6.35;3.88;;;1.70;84.20;;;;;;4995234;28;20545;-64
2021/03/02 04:23:14;;;;;;;6.78;4.70;;;1.70;84.60;;;;;;4994595;28;20117;-64
2021/03/02 04:25:39;;;;;;;8.93;5.25;;;1.60;85.20;;;;;;4997454;28;20038;-65
2021/03/02 04:28:06;;;;;;;13.45;4.70;;;1.70;84.90;;;;;;4998713;28;20119;-64
2021/03/02 04:30:32;;;;;;;8.05;4.75;;;1.70;84.90;;;;;;4992028;28;20512;-65
2021/03/02 04:32:58;;;;;;;7.68;4.63;;;1.80;84.70;;;;;;4997982;28;20042;-65
2021/03/02 04:35:24;;;;;;;7.20;4.53;;;1.80;84.70;;;;;;4997276;28;20034;-64
2021/03/02 04:37:50;;;;;;;16.67;5.40;;;1.90;83.90;;;;;;4997327;28;20869;-65
2021/03/02 04:40:17;;;;;;;15.48;4.75;;;1.90;84.10;;;;;;4997929;28;20030;-64
2021/03/02 04:42:44;;;;;;;21.45;5.50;;;1.80;83.80;;;;;;4977249;28;20092;-65
2021/03/02 04:45:11;;;;;;;30.60;6.18;;;1.80;83.70;;;;;;4997578;28;20051;-64
2021/03/02 04:47:39;;;;;;;25.63;5.55;;;1.70;84.00;;;;;;4997995;28;20037;-65
2021/03/02 04:50:05;;;;;;;35.33;5.80;;;1.70;83.70;;;;;;4980166;28;20044;-65
2021/03/02 04:52:31;;;;;;;7.93;5.07;;;1.60;84.60;;;;;;4997192;28;20057;-65
2021/03/02 04:54:57;;;;;;;13.02;5.25;;;1.60;84.40;;;;;;4998465;28;20622;-65
2021/03/02 04:57:23;;;;;;;6.32;3.72;;;1.50;84.90;;;;;;4997706;28;20081;-65
2021/03/02 04:59:49;;;;;;;7.68;4.60;;;1.60;85.00;;;;;;4981642;28;20121;-65
2021/03/02 05:02:14;;;;;;;7.80;4.65;;;1.60;85.20;;;;;;4999909;28;20504;-65
2021/03/02 05:04:40;;;;;;;5.95;4.07;;;1.60;84.80;;;;;;5000863;28;20030;-65
2021/03/02 05:07:05;;;;;;;18.98;5.57;;;1.70;84.70;;;;;;5000548;28;20065;-65
2021/03/02 05:09:31;;;;;;;7.85;5.05;;;1.70;84.10;;;;;;5000250;28;20153;-64
2021/03/02 05:11:57;;;;;;;6.63;4.40;;;1.70;83.80;;;;;;5000248;28;20530;-64
2021/03/02 05:14:23;;;;;;;10.13;4.63;;;1.80;84.20;;;;;;4998380;28;20032;-65
2021/03/02 05:16:50;;;;;;;8.23;5.07;;;1.80;84.20;;;;;;4997119;28;20022;-64
2021/03/02 05:19:15;;;;;;;8.93;5.28;;;1.80;82.90;;;;;;4997471;28;20014;-64
2021/03/02 05:21:41;;;;;;;12.45;4.45;;;1.70;83.20;;;;;;4996285;28;20041;-65
2021/03/02 05:24:07;;;;;;;40.05;6.20;;;1.80;83.50;;;;;;4996784;28;20034;-65
2021/03/02 05:26:33;;;;;;;5.78;3.65;;;1.80;83.00;;;;;;4996751;28;20520;-64
2021/03/02 05:28:59;;;;;;;6.72;4.45;;;1.70;82.70;;;;;;4979215;28;20088;-65
2021/03/02 05:31:25;;;;;;;7.47;4.50;;;1.70;82.60;;;;;;4996774;28;20038;-65
2021/03/02 05:33:51;;;;;;;10.35;4.55;;;1.70;82.80;;;;;;4997349;28;20465;-65
2021/03/02 05:36:16;;;;;;;8.00;4.80;;;1.70;83.20;;;;;;4979409;28;20025;-64
2021/03/02 05:38:42;;;;;;;6.45;4.05;;;1.70;83.40;;;;;;4998204;28;20026;-65
2021/03/02 05:41:09;;;;;;;9.65;4.88;;;1.70;83.80;;;;;;4997718;28;20042;-64
2021/03/02 05:43:40;;;;;;;7.95;4.82;;;1.70;83.40;;;;;;4997455;28;20034;-64
2021/03/02 05:46:06;;;;;;;20.25;5.40;;;1.80;82.50;;;;;;4980109;28;20056;-64
2021/03/02 05:48:32;;;;;;;8.23;5.13;;;1.80;82.40;;;;;;4998333;28;20034;-65
2021/03/02 05:50:58;;;;;;;77.80;7.15;;;1.80;82.50;;;;;;4997998;28;20038;-65
2021/03/02 05:53:24;;;;;;;46.58;7.40;;;1.80;82.20;;;;;;4980499;28;20505;-65
2021/03/02 05:55:50;;;;;;;16.13;5.35;;;1.70;82.40;;;;;;4998116;28;20029;-65
2021/03/02 05:58:17;;;;;;;7.22;4.28;;;1.60;82.70;;;;;;4997369;28;20788;-65
2021/03/02 06:00:43;;;;;;;6.70;4.13;;;1.60;83.10;;;;;;4997705;28;20048;-65
2021/03/02 06:03:09;;;;;;;16.42;6.07;;;1.60;83.10;;;;;;4978080;28;20133;-64
2021/03/02 06:05:36;;;;;;;10.30;5.63;;;1.60;83.60;;;;;;4978503;28;20121;-64
2021/03/02 06:08:03;;;;;;;8.10;4.60;;;1.60;83.00;;;;;;4979516;28;20045;-65
2021/03/02 06:10:32;;;;;;;10.27;4.93;;;1.60;82.80;;;;;;4996573;28;20718;-65
2021/03/02 06:12:59;;;;;;;6.45;4.50;;;1.70;82.80;;;;;;4997156;28;20808;-64
2021/03/02 06:15:26;;;;;;;12.63;4.40;;;1.60;82.80;;;;;;4996671;28;20132;-65
2021/03/02 06:18:12;;;;;;;8.40;4.70;;;1.60;83.10;;;;;;4997245;28;20062;-65
2021/03/02 06:20:39;;;;;;;11.32;5.05;;;1.70;83.10;;;;;;4992551;28;20080;-65
2021/03/02 06:23:23;;;;;;;11.63;6.28;;;1.70;84.00;;;;;;4996847;28;20037;-65
2021/03/02 06:25:50;;;;;;;8.48;5.25;;;1.70;83.70;;;;;;4996170;28;20034;-65
2021/03/02 06:28:37;;;;;;;7.53;4.65;;;1.80;82.90;;;;;;4996450;28;20030;-65
2021/03/02 06:31:03;;;;;;;14.05;5.88;;;1.90;82.90;;;;;;4996377;28;20089;-65
2021/03/02 06:33:29;;;;;;;10.55;5.63;;;1.80;83.20;;;;;;4996741;28;20065;-64
2021/03/02 06:35:55;;;;;;;8.90;5.43;;;1.90;82.50;;;;;;4996188;28;20502;-67
2021/03/02 06:38:26;;;;;;;8.20;5.18;;;1.90;82.80;;;;;;4996648;28;20034;-65
2021/03/02 06:40:52;;;;;;;9.15;5.22;;;1.90;83.00;;;;;;4996843;28;20038;-64
2021/03/02 06:43:37;;;;;;;11.60;6.13;;;1.90;82.80;;;;;;4995251;28;20030;-64
2021/03/02 06:46:08;;;;;;;7.75;4.78;;;2.00;82.50;;;;;;4996025;28;20041;-64
2021/03/02 06:48:53;;;;;;;9.40;5.55;;;2.00;82.10;;;;;;4990704;28;20338;-64
2021/03/02 06:51:35;;;;;;;8.88;4.97;;;2.10;82.30;;;;;;4993823;28;20041;-63
2021/03/02 06:54:04;;;;;;;8.32;4.85;;;2.10;82.10;;;;;;4995740;28;20042;-64
2021/03/02 06:56:30;;;;;;;8.38;4.90;;;2.10;82.10;;;;;;4996347;28;20038;-64
2021/03/02 06:59:14;;;;;;;9.93;5.90;;;2.10;81.60;;;;;;4996036;28;20034;-64
2021/03/02 07:01:45;;;;;;;9.48;5.20;;;2.10;82.00;;;;;;4992660;28;20034;-64
2021/03/02 07:04:15;;;;;;;9.15;5.13;;;2.20;81.90;;;;;;4995361;28;20899;-63
2021/03/02 07:06:43;;;;;;;7.45;4.68;;;2.20;81.60;;;;;;4996320;28;20037;-64
2021/03/02 07:09:10;;;;;;;7.07;3.83;;;2.20;80.40;;;;;;4995958;28;20026;-63
2021/03/02 07:11:38;;;;;;;8.32;5.15;;;2.20;79.40;;;;;;4995123;28;20045;-65
2021/03/02 07:14:09;;;;;;;12.35;5.25;;;2.20;80.30;;;;;;4994903;28;20604;-64
2021/03/02 07:16:42;;;;;;;30.27;6.43;;;2.10;81.10;;;;;;5010160;28;20827;-64
2021/03/02 07:19:09;;;;;;;19.17;7.65;;;2.10;82.80;;;;;;4996873;28;20030;-64
2021/03/02 07:21:39;;;;;;;35.65;6.97;;;2.10;82.50;;;;;;4997927;28;20084;-65
2021/03/02 07:24:09;;;;;;;11.43;6.35;;;2.20;81.70;;;;;;4998041;28;20112;-63
2021/03/02 07:26:36;;;;;;;14.00;6.82;;;2.30;81.00;;;;;;4996933;28;20476;-64
2021/03/02 07:29:03;;;;;;;21.90;5.85;;;2.40;80.30;;;;;;4996058;28;20033;-62
2021/03/02 07:31:32;;;;;;;12.43;6.15;;;2.50;79.80;;;;;;4994729;28;20042;-64
2021/03/02 07:34:01;;;;;;;16.50;6.32;;;2.50;80.30;;;;;;4996023;28;20042;-64
2021/03/02 07:36:39;;;;;;;10.00;5.47;;;2.50;80.00;;;;;;4994986;28;20042;-62
2021/03/02 07:39:14;;;;;;;22.52;7.20;;;2.50;80.50;;;;;;4995986;28;20029;-62
2021/03/02 07:41:40;;;;;;;13.55;7.22;;;2.50;80.70;;;;;;4990771;28;20430;-64
2021/03/02 07:44:07;;;;;;;13.63;7.13;;;2.50;80.60;;;;;;4977625;28;20080;-63
2021/03/02 07:46:41;;;;;;;17.33;6.55;;;2.60;80.20;;;;;;4977763;28;20045;-64
2021/03/02 07:49:22;;;;;;;17.38;7.22;;;2.70;79.90;;;;;;4995246;28;20034;-63
2021/03/02 07:52:00;;;;;;;28.40;6.88;;;2.70;79.90;;;;;;4995901;28;20034;-64
2021/03/02 07:54:26;;;;;;;14.10;6.70;;;2.70;79.50;;;;;;4994997;28;20030;-64
2021/03/02 07:57:13;;;;;;;10.95;5.45;;;2.70;79.10;;;;;;4994683;28;20034;-64
2021/03/02 07:59:40;;;;;;;10.32;6.15;;;2.70;79.80;;;;;;4996593;28;20030;-63
2021/03/02 08:02:22;;;;;;;11.55;6.18;;;2.70;79.10;;;;;;4998358;28;20152;-64
2021/03/02 08:04:55;;;;;;;16.02;6.57;;;2.80;79.70;;;;;;4995146;28;20069;-64
2021/03/02 08:07:23;;;;;;;15.43;6.05;;;2.90;78.70;;;;;;4981109;28;20041;-64
2021/03/02 08:09:51;;;;;;;10.23;5.70;;;3.00;78.80;;;;;;4998510;28;20049;-64
2021/03/02 08:12:43;;;;;;;13.85;6.25;;;3.10;78.40;;;;;;4979768;28;20494;-63
2021/03/02 08:15:12;;;;;;;13.38;6.68;;;3.20;78.70;;;;;;4993715;28;20047;-63
2021/03/02 08:17:38;;;;;;;10.80;5.72;;;3.30;79.30;;;;;;4999111;28;20171;-64
2021/03/02 08:20:08;;;;;;;13.52;7.07;;;3.40;77.30;;;;;;4997704;28;20033;-63
2021/03/02 08:22:34;;;;;;;14.63;7.00;;;3.50;76.90;;;;;;4993885;28;20809;-64
2021/03/02 08:25:03;;;;;;;17.02;6.75;;;3.50;77.60;;;;;;4997789;28;20026;-64
2021/03/02 08:27:42;;;;;;;12.05;6.35;;;3.60;77.40;;;;;;4997922;28;20041;-63
2021/03/02 08:30:13;;;;;;;24.55;8.13;;;3.60;77.90;;;;;;4997437;28;20037;-63
2021/03/02 08:32:40;;;;;;;13.10;6.88;;;3.70;77.50;;;;;;4998490;28;20068;-63
2021/03/02 08:35:12;;;;;;;13.43;6.53;;;3.70;77.00;;;;;;4997713;28;20789;-65
2021/03/02 08:37:42;;;;;;;27.95;6.68;;;3.80;77.00;;;;;;4997910;28;20034;-64
2021/03/02 08:40:11;;;;;;;13.20;6.57;;;3.80;76.10;;;;;;4998140;28;20036;-64
2021/03/02 08:42:57;;;;;;;11.07;6.20;;;3.70;76.30;;;;;;4997182;28;20053;-65
2021/03/02 08:45:23;;;;;;;13.77;6.40;;;3.70;76.20;;;;;;4996788;28;20040;-64
2021/03/02 08:47:48;;;;;;;18.75;7.35;;;3.70;77.10;;;;;;4996813;28;20062;-64
2021/03/02 08:50:14;;;;;;;13.90;7.03;;;3.70;77.90;;;;;;4997645;28;20914;-64
2021/03/02 08:52:40;;;;;;;24.67;8.25;;;3.70;78.00;;;;;;4997970;28;20030;-63
2021/03/02 08:55:08;;;;;;;14.70;6.95;;;3.60;78.10;;;;;;4997496;28;20037;-64
2021/03/02 08:57:44;;;;;;;15.45;7.82;;;3.60;78.70;;;;;;4997580;28;20125;-63
2021/03/02 09:00:17;;;;;;;15.52;8.00;;;3.60;78.60;;;;;;4997740;28;20034;-65
2021/03/02 09:02:45;;;;;;;22.17;8.45;;;3.70;78.10;;;;;;4997127;28;20689;-64
2021/03/02 09:05:18;;;;;;;19.45;9.00;;;3.90;77.70;;;;;;4997138;28;20113;-68
2021/03/02 09:08:05;;;;;;;32.63;14.52;;;3.90;77.40;;;;;;4996207;28;20029;-64
2021/03/02 09:10:31;;;;;;;;;;;4.00;77.90;;;;;;4992075;28;20041;-64
2021/03/02 09:12:57;;;;;;;27.70;11.00;;;4.00;77.10;;;;;;4978590;28;20293;-64
2021/03/02 09:15:36;;;;;;;22.98;9.05;;;4.00;77.50;;;;;;4994773;28;20030;-66
2021/03/02 09:18:15;;;;;;;19.50;8.95;;;4.00;78.20;;;;;;4997354;28;20107;-66
2021/03/02 09:20:48;;;;;;;19.73;8.77;;;4.00;77.90;;;;;;4994210;28;20888;-71
2021/03/02 09:23:14;;;;;;;19.95;9.43;;;4.10;76.80;;;;;;4998633;28;20112;-68
2021/03/02 09:25:40;;;;;;;31.48;9.18;;;4.20;77.60;;;;;;4996799;28;20038;-64
2021/03/02 09:28:16;;;;;;;28.15;8.48;;;4.30;77.70;;;;;;4998232;28;20060;-65
2021/03/02 09:30:42;;;;;;;20.77;9.52;;;4.40;76.70;;;;;;4997502;28;20705;-64
2021/03/02 09:33:09;;;;;;;23.00;10.63;;;4.40;75.50;;;;;;4997696;28;20038;-64
2021/03/02 09:35:35;;;;;;;21.38;10.25;;;4.40;76.80;;;;;;4998377;28;20026;-65
2021/03/02 09:38:01;;;;;;;25.15;10.18;;;4.40;76.70;;;;;;4996736;28;20044;-64
2021/03/02 09:40:26;;;;;;;19.90;9.07;;;4.50;77.70;;;;;;4996830;28;20052;-64
2021/03/02 09:42:55;;;;;;;15.82;9.25;;;4.60;77.00;;;;;;4997329;28;20072;-63
2021/03/02 09:45:21;;;;;;;20.20;9.35;;;4.70;76.80;;;;;;4997453;28;20026;-70
2021/03/02 09:47:56;;;;;;;21.25;10.20;;;4.80;76.80;;;;;;4996369;28;20124;-69
2021/03/02 09:50:21;;;;;;;21.48;9.82;;;4.90;76.00;;;;;;4998205;28;20502;-70
2021/03/02 09:52:51;;;;;;;18.52;9.85;;;5.00;75.60;;;;;;4997622;28;20084;-68
2021/03/02 09:55:27;;;;;;;23.52;10.35;;;5.10;75.30;;;;;;4996826;28;20072;-66
2021/03/02 09:58:12;;;;;;;20.15;10.57;;;5.20;76.00;;;;;;4997187;28;20092;-64
2021/03/02 10:01:01;;;;;;;20.75;10.75;;;5.30;76.30;;;;;;4987059;28;20521;-64
2021/03/02 10:03:35;;;;;;;21.58;10.02;;;5.50;75.30;;;;;;4996133;28;20141;-69
2021/03/02 10:06:03;;;;;;;21.17;10.10;;;5.60;75.60;;;;;;4997056;28;20038;-70
2021/03/02 10:08:35;;;;;;;22.05;10.57;;;5.70;75.00;;;;;;4980048;28;20040;-65
2021/03/02 10:11:17;;;;;;;21.63;10.50;;;5.80;74.10;;;;;;4995564;28;20041;-64
2021/03/02 10:13:45;;;;;;;20.52;9.73;;;5.90;74.60;;;;;;4994133;28;20166;-64
2021/03/02 10:16:18;;;;;;;19.10;10.57;;;5.90;74.70;;;;;;4994123;28;20124;-61
2021/03/02 10:18:48;;;;;;;32.30;14.90;;;6.00;74.30;;;;;;4996924;28;20021;-63
2021/03/02 10:21:14;;;;;;;42.42;19.42;;;6.10;74.10;;;;;;4995998;28;20129;-62
2021/03/02 10:23:44;;;;;;;57.05;24.88;;;6.00;73.60;;;;;;4997060;28;20091;-61
2021/03/02 10:26:11;;;;;;;32.35;15.73;;;6.10;74.40;;;;;;4993479;28;20046;-61
2021/03/02 10:28:37;;;;;;;24.65;12.30;;;6.20;72.90;;;;;;4997882;28;20133;-62
2021/03/02 10:31:03;;;;;;;21.33;9.60;;;6.20;73.00;;;;;;4997325;28;20482;-61
2021/03/02 10:33:29;;;;;;;18.48;10.25;;;5.90;73.00;;;;;;4996466;28;20029;-64
2021/03/02 10:35:55;;;;;;;20.58;10.90;;;5.70;74.00;;;;;;4996857;28;20406;-62
2021/03/02 10:38:21;;;;;;;19.23;10.15;;;5.70;74.80;;;;;;4996218;28;20034;-64
2021/03/02 10:40:47;;;;;;;21.25;9.57;;;5.90;74.80;;;;;;4996322;28;20112;-63
2021/03/02 10:43:13;;;;;;;25.95;12.55;;;6.00;74.50;;;;;;4996560;28;20486;-64
2021/03/02 10:45:39;;;;;;;21.83;10.73;;;6.10;72.80;;;;;;4996691;28;20119;-63
2021/03/02 10:48:05;;;;;;;18.33;9.88;;;6.20;72.90;;;;;;4996347;28;20072;-68
2021/03/02 10:50:30;;;;;;;18.45;9.52;;;6.20;73.40;;;;;;4994909;28;20729;-63
2021/03/02 10:52:57;;;;;;;25.88;12.48;;;6.30;73.30;;;;;;4996564;28;20041;-65
2021/03/02 10:55:23;;;;;;;18.00;9.57;;;6.30;73.00;;;;;;4994681;28;20034;-63
2021/03/02 10:57:51;;;;;;;19.27;10.80;;;6.30;73.30;;;;;;4997211;28;20398;-67
2021/03/02 11:00:18;;;;;;;27.25;12.75;;;6.40;73.80;;;;;;4996123;28;20544;-65
2021/03/02 11:02:44;;;;;;;25.70;13.68;;;6.40;73.30;;;;;;4996985;28;20026;-60
2021/03/02 11:05:11;;;;;;;23.40;12.15;;;6.50;72.50;;;;;;5008137;28;20565;-61
2021/03/02 11:07:37;;;;;;;19.90;11.15;;;6.50;72.30;;;;;;4996816;28;20042;-60
2021/03/02 11:10:05;;;;;;;19.05;10.48;;;6.50;73.80;;;;;;4996463;28;20034;-61
2021/03/02 11:12:31;;;;;;;25.73;13.73;;;6.70;73.80;;;;;;4996074;28;20060;-61
2021/03/02 11:14:57;;;;;;;24.02;11.98;;;6.80;73.30;;;;;;4995956;28;20026;-60
2021/03/02 11:17:22;;;;;;;22.60;11.82;;;6.80;73.00;;;;;;4995937;28;20412;-60
2021/03/02 11:19:49;;;;;;;24.75;11.77;;;7.00;73.30;;;;;;4995953;28;20034;-60
2021/03/02 11:22:15;;;;;;;25.27;12.40;;;7.00;72.90;;;;;;4996577;28;20034;-60
2021/03/02 11:24:41;;;;;;;25.27;11.52;;;7.10;72.50;;;;;;4996757;28;20529;-60
2021/03/02 11:27:06;;;;;;;21.88;11.98;;;7.20;73.00;;;;;;4995888;28;20034;-60
2021/03/02 11:29:35;;;;;;;23.42;12.85;;;7.20;71.90;;;;;;4994604;28;20046;-60
2021/03/02 11:32:04;;;;;;;21.98;11.82;;;7.30;72.20;;;;;;4994858;28;20079;-61
2021/03/02 11:34:30;;;;;;;20.98;11.93;;;7.40;73.00;;;;;;4999291;28;20044;-60
2021/03/02 11:36:56;;;;;;;18.85;11.23;;;7.50;73.10;;;;;;4998524;28;20042;-61
2021/03/02 11:39:21;;;;;;;23.65;12.40;;;7.60;72.20;;;;;;4998317;28;20830;-60
2021/03/02 11:41:48;;;;;;;19.05;10.68;;;7.70;72.00;;;;;;4998645;28;20872;-60
2021/03/02 11:44:14;;;;;;;22.42;10.68;;;7.70;72.10;;;;;;4999911;28;20033;-60
2021/03/02 11:46:39;;;;;;;26.48;13.10;;;7.70;72.20;;;;;;4998208;28;20748;-60
2021/03/02 11:49:05;;;;;;;20.50;11.98;;;7.60;71.80;;;;;;4999770;28;20051;-60
2021/03/02 11:51:31;;;;;;;22.95;12.27;;;7.40;72.40;;;;;;4995984;28;20038;-59
2021/03/02 11:53:56;;;;;;;25.40;13.48;;;7.30;73.40;;;;;;4997976;28;20037;-61
2021/03/02 11:56:22;;;;;;;23.88;12.52;;;7.10;74.40;;;;;;4999124;28;20083;-60
2021/03/02 11:58:48;;;;;;;23.10;12.55;;;7.10;75.60;;;;;;5000053;28;20041;-60
2021/03/02 12:01:13;;;;;;;23.88;12.30;;;7.10;76.20;;;;;;4999045;28;20049;-60
2021/03/02 12:03:39;;;;;;;24.90;12.32;;;7.00;74.70;;;;;;5014054;28;20040;-60
2021/03/02 12:06:05;;;;;;;23.73;12.48;;;6.90;76.00;;;;;;4999057;28;20845;-60
2021/03/02 12:08:30;;;;;;;23.65;12.82;;;6.90;77.10;;;;;;4999091;28;20450;-60
2021/03/02 12:10:56;;;;;;;26.50;13.15;;;6.90;77.80;;;;;;4999714;28;20033;-58
2021/03/02 12:13:22;;;;;;;21.60;11.38;;;7.00;77.20;;;;;;4999751;28;20395;-60
2021/03/02 12:15:48;;;;;;;29.83;12.45;;;6.90;75.50;;;;;;4998000;28;20038;-60
2021/03/02 12:18:14;;;;;;;23.00;11.73;;;6.90;76.10;;;;;;4999042;28;20045;-60
2021/03/02 12:20:40;;;;;;;24.88;12.73;;;6.90;77.00;;;;;;4999226;28;20447;-60
2021/03/02 12:23:06;;;;;;;23.92;12.88;;;7.00;78.10;;;;;;4999175;28;20152;-60
2021/03/02 12:25:31;;;;;;;25.67;13.20;;;7.10;77.80;;;;;;4998954;28;20049;-60
2021/03/02 12:27:57;;;;;;;26.88;11.48;;;7.10;75.40;;;;;;4999234;28;20030;-60
2021/03/02 12:30:23;;;;;;;22.52;12.77;;;7.10;75.60;;;;;;4998383;28;20081;-60
2021/03/02 12:32:50;;;;;;;23.48;13.10;;;7.10;75.80;;;;;;4999550;28;20075;-60
2021/03/02 12:35:16;;;;;;;18.15;10.93;;;7.10;77.60;;;;;;4998974;28;20080;-60
2021/03/02 12:37:41;;;;;;;21.95;11.50;;;7.20;77.20;;;;;;4999263;28;20038;-60
2021/03/02 12:40:07;;;;;;;21.75;11.90;;;7.30;77.60;;;;;;4999003;28;20037;-59
2021/03/02 12:42:34;;;;;;;21.15;11.85;;;7.40;76.50;;;;;;4999439;28;20041;-60
2021/03/02 12:45:00;;;;;;;19.38;11.27;;;7.30;76.20;;;;;;4997380;28;20069;-60
2021/03/02 12:47:25;;;;;;;21.10;11.68;;;7.40;77.20;;;;;;4998257;28;20133;-58
2021/03/02 12:49:51;;;;;;;20.92;11.30;;;7.40;77.10;;;;;;4998933;28;20034;-60
2021/03/02 12:52:17;;;;;;;17.75;10.57;;;7.40;76.20;;;;;;4997970;28;20025;-60
2021/03/02 12:54:42;;;;;;;19.40;11.15;;;7.40;76.30;;;;;;4998859;28;20137;-60